Cardinal Hall, Texas
Current Conditions -  °F | °C
As of 3:55 PM on Monday 22 Dec 2014 (Local Time) from KF44 Reporting Station
Clear Clear  
Wind Chill: 68°   Ceiling: Unl
Heat Index: 68°   Visibility: 10mi
Dew Point: 45°   Wind: 8mph
Humidity: 43%   Direction: 230°SW
Pressure: 29.56"   Gusts: NA
Location:  32.2052°N, 95.8517°W
Report Text: KF44 222155Z AUTO 23007KT 10SM CLR 20/07 A2956 RMK AO2
Loading
Personal Weather Stations






























Interactive Weather Map New forecast layout! Learn more

10-Day Weather Forecast

Advertisements
Track Severe Weather on mobile